Terminal Aerodrome Forecast
Issued by NWS

Current Version | Previous Version | Text Only | Print | Product List | Glossary On
Versions: 1 2 3 4 5 6 7 8 9 10 11 12 13 14 15 16 17 18 19 20 21 22 23 24 25 26 27 28 29
908
FTUS46 KOTX 111735
TAFMWH
TAF
KMWH 111735Z 1118/1218 02008KT P6SM OVC090
     FM112100 02005KT P6SM VCSH SCT025 OVC045
     FM120100 35007KT P6SM -RA SCT015 OVC040
     FM120400 VRB03KT 6SM -RA BR BKN020 OVC035
     FM121400 05004KT P6SM OVC100=

USA.gov is the U.S. government's official web portal to all federal, state and local government web resources and services.